Glen Flora, Wisconsin
Current Conditions -  °F | °C
As of 10:15 PM on Wednesday 22 Oct 2014 (Local Time) from KRCX Reporting Station
Overcast Overcast  
Wind Chill: 52°   Ceiling: 3400
Heat Index: 52°   Visibility: 10mi
Dew Point: 37°   Wind: 10mph
Humidity: 56%   Direction: 150°SSE
Pressure: 30.15"   Gusts: NA
Location:  45.5°N, 90.89°W
Report Text: KRCX 230315Z AUTO 15009KT 10SM BKN034 BKN060 OVC120 11/03 A3015 RMK AO2 T01100025
Loading
Personal Weather Stations






























Interactive Weather Map
Tropical Storm Tracking
New forecast layout! Learn more

10-Day Weather Forecast

Advertisements
Track Severe Weather on mobile